sensor_id;sensor_type;location;lat;lon;timestamp;P1;durP1;ratioP1;P2;durP2;ratioP2
42244;SDS011;27912;51.828;5.688;2023-04-01T00:00:52;6.60;;;0.93;;
42244;SDS011;27912;51.828;5.688;2023-04-01T00:03:19;7.38;;;1.35;;
42244;SDS011;27912;51.828;5.688;2023-04-01T00:05:46;3.38;;;1.20;;
42244;SDS011;27912;51.828;5.688;2023-04-01T00:08:12;3.13;;;1.17;;
42244;SDS011;27912;51.828;5.688;2023-04-01T00:10:38;4.22;;;1.10;;
42244;SDS011;27912;51.828;5.688;2023-04-01T00:13:03;4.45;;;1.40;;
42244;SDS011;27912;51.828;5.688;2023-04-01T00:15:29;4.85;;;1.67;;
42244;SDS011;27912;51.828;5.688;2023-04-01T00:17:55;3.95;;;1.88;;
42244;SDS011;27912;51.828;5.688;2023-04-01T00:20:21;6.20;;;2.15;;
42244;SDS011;27912;51.828;5.688;2023-04-01T00:22:47;5.15;;;2.78;;
42244;SDS011;27912;51.828;5.688;2023-04-01T00:25:13;9.80;;;3.97;;
42244;SDS011;27912;51.828;5.688;2023-04-01T00:27:39;9.05;;;3.42;;
42244;SDS011;27912;51.828;5.688;2023-04-01T00:30:05;9.20;;;3.45;;
42244;SDS011;27912;51.828;5.688;2023-04-01T00:32:32;7.30;;;3.60;;
42244;SDS011;27912;51.828;5.688;2023-04-01T00:34:58;8.18;;;4.50;;
42244;SDS011;27912;51.828;5.688;2023-04-01T00:37:24;6.03;;;4.20;;
42244;SDS011;27912;51.828;5.688;2023-04-01T00:39:50;5.43;;;4.25;;
42244;SDS011;27912;51.828;5.688;2023-04-01T00:42:16;8.95;;;5.20;;
42244;SDS011;27912;51.828;5.688;2023-04-01T00:44:44;8.45;;;5.47;;
42244;SDS011;27912;51.828;5.688;2023-04-01T00:47:12;7.93;;;5.38;;
42244;SDS011;27912;51.828;5.688;2023-04-01T00:49:40;10.93;;;5.55;;
42244;SDS011;27912;51.828;5.688;2023-04-01T00:52:10;6.88;;;5.18;;
42244;SDS011;27912;51.828;5.688;2023-04-01T00:54:37;9.88;;;5.93;;
42244;SDS011;27912;51.828;5.688;2023-04-01T00:57:05;10.00;;;6.15;;
42244;SDS011;27912;51.828;5.688;2023-04-01T00:59:43;12.55;;;6.43;;
42244;SDS011;27912;51.828;5.688;2023-04-01T01:02:12;7.75;;;6.63;;
42244;SDS011;27912;51.828;5.688;2023-04-01T01:04:39;9.13;;;6.82;;
42244;SDS011;27912;51.828;5.688;2023-04-01T01:34:11;10.35;;;8.55;;
42244;SDS011;27912;51.828;5.688;2023-04-01T01:36:40;9.85;;;7.43;;
42244;SDS011;27912;51.828;5.688;2023-04-01T01:39:10;9.43;;;7.63;;
42244;SDS011;27912;51.828;5.688;2023-04-01T01:41:38;10.30;;;8.50;;
42244;SDS011;27912;51.828;5.688;2023-04-01T01:44:07;9.85;;;7.45;;
42244;SDS011;27912;51.828;5.688;2023-04-01T01:46:36;13.43;;;8.20;;
42244;SDS011;27912;51.828;5.688;2023-04-01T01:49:04;10.25;;;7.40;;
42244;SDS011;27912;51.828;5.688;2023-04-01T01:51:32;8.82;;;6.88;;
42244;SDS011;27912;51.828;5.688;2023-04-01T01:53:58;7.57;;;6.03;;
42244;SDS011;27912;51.828;5.688;2023-04-01T01:56:24;10.90;;;6.13;;
42244;SDS011;27912;51.828;5.688;2023-04-01T01:58:57;10.48;;;6.30;;
42244;SDS011;27912;51.828;5.688;2023-04-01T02:01:28;8.52;;;5.70;;
42244;SDS011;27912;51.828;5.688;2023-04-01T02:03:56;7.30;;;4.70;;
42244;SDS011;27912;51.828;5.688;2023-04-01T02:06:23;8.05;;;4.82;;
42244;SDS011;27912;51.828;5.688;2023-04-01T02:08:52;7.55;;;4.72;;
42244;SDS011;27912;51.828;5.688;2023-04-01T02:11:28;7.78;;;4.72;;
42244;SDS011;27912;51.828;5.688;2023-04-01T02:14:03;7.18;;;4.55;;
42244;SDS011;27912;51.828;5.688;2023-04-01T02:16:47;5.95;;;3.35;;
42244;SDS011;27912;51.828;5.688;2023-04-01T02:19:18;4.78;;;2.33;;
42244;SDS011;27912;51.828;5.688;2023-04-01T02:21:53;5.50;;;2.30;;
42244;SDS011;27912;51.828;5.688;2023-04-01T02:24:24;4.85;;;1.80;;
42244;SDS011;27912;51.828;5.688;2023-04-01T02:26:52;4.65;;;2.53;;
42244;SDS011;27912;51.828;5.688;2023-04-01T02:29:19;6.10;;;2.75;;
42244;SDS011;27912;51.828;5.688;2023-04-01T02:31:47;4.50;;;2.95;;
42244;SDS011;27912;51.828;5.688;2023-04-01T02:34:14;5.43;;;2.47;;
42244;SDS011;27912;51.828;5.688;2023-04-01T02:36:39;6.00;;;2.80;;
42244;SDS011;27912;51.828;5.688;2023-04-01T02:39:05;3.40;;;2.42;;
42244;SDS011;27912;51.828;5.688;2023-04-01T02:41:33;4.63;;;2.60;;
42244;SDS011;27912;51.828;5.688;2023-04-01T02:44:04;5.05;;;2.85;;
42244;SDS011;27912;51.828;5.688;2023-04-01T02:46:30;5.30;;;2.45;;
42244;SDS011;27912;51.828;5.688;2023-04-01T02:48:55;6.55;;;2.03;;
42244;SDS011;27912;51.828;5.688;2023-04-01T02:51:21;4.10;;;2.58;;
42244;SDS011;27912;51.828;5.688;2023-04-01T02:53:46;3.28;;;1.95;;
42244;SDS011;27912;51.828;5.688;2023-04-01T02:56:12;3.10;;;1.80;;
42244;SDS011;27912;51.828;5.688;2023-04-01T02:58:37;3.03;;;1.98;;
42244;SDS011;27912;51.828;5.688;2023-04-01T03:01:03;4.07;;;2.25;;
42244;SDS011;27912;51.828;5.688;2023-04-01T03:03:28;3.22;;;2.05;;
42244;SDS011;27912;51.828;5.688;2023-04-01T03:05:54;4.65;;;2.55;;
42244;SDS011;27912;51.828;5.688;2023-04-01T03:08:21;4.28;;;2.35;;
42244;SDS011;27912;51.828;5.688;2023-04-01T03:10:47;5.25;;;2.60;;
42244;SDS011;27912;51.828;5.688;2023-04-01T03:13:12;5.70;;;2.60;;
42244;SDS011;27912;51.828;5.688;2023-04-01T03:15:38;4.68;;;2.60;;
42244;SDS011;27912;51.828;5.688;2023-04-01T03:18:03;4.65;;;3.00;;
42244;SDS011;27912;51.828;5.688;2023-04-01T03:20:29;5.07;;;3.05;;
42244;SDS011;27912;51.828;5.688;2023-04-01T03:22:54;5.95;;;3.45;;
42244;SDS011;27912;51.828;5.688;2023-04-01T03:25:20;5.40;;;3.38;;
42244;SDS011;27912;51.828;5.688;2023-04-01T03:27:46;6.93;;;3.80;;
42244;SDS011;27912;51.828;5.688;2023-04-01T03:30:11;6.03;;;3.25;;
42244;SDS011;27912;51.828;5.688;2023-04-01T03:32:37;6.03;;;3.38;;
42244;SDS011;27912;51.828;5.688;2023-04-01T03:35:02;10.88;;;3.53;;
42244;SDS011;27912;51.828;5.688;2023-04-01T03:37:29;5.82;;;3.67;;
42244;SDS011;27912;51.828;5.688;2023-04-01T03:39:55;4.75;;;2.60;;
42244;SDS011;27912;51.828;5.688;2023-04-01T03:42:20;4.55;;;2.88;;
42244;SDS011;27912;51.828;5.688;2023-04-01T03:44:46;6.03;;;3.08;;
42244;SDS011;27912;51.828;5.688;2023-04-01T03:47:11;4.18;;;2.72;;
42244;SDS011;27912;51.828;5.688;2023-04-01T03:49:37;5.35;;;2.90;;
42244;SDS011;27912;51.828;5.688;2023-04-01T03:52:02;6.32;;;3.15;;
42244;SDS011;27912;51.828;5.688;2023-04-01T03:54:28;4.63;;;2.88;;
42244;SDS011;27912;51.828;5.688;2023-04-01T03:56:54;5.18;;;3.20;;
42244;SDS011;27912;51.828;5.688;2023-04-01T03:59:20;7.13;;;3.30;;
42244;SDS011;27912;51.828;5.688;2023-04-01T04:01:46;5.88;;;3.35;;
42244;SDS011;27912;51.828;5.688;2023-04-01T04:04:12;10.30;;;4.43;;
42244;SDS011;27912;51.828;5.688;2023-04-01T04:06:39;7.80;;;5.13;;
42244;SDS011;27912;51.828;5.688;2023-04-01T04:09:05;8.70;;;5.85;;
42244;SDS011;27912;51.828;5.688;2023-04-01T04:11:31;10.05;;;6.47;;
42244;SDS011;27912;51.828;5.688;2023-04-01T04:13:57;10.25;;;7.00;;
42244;SDS011;27912;51.828;5.688;2023-04-01T04:16:23;9.20;;;6.18;;
42244;SDS011;27912;51.828;5.688;2023-04-01T04:18:49;12.95;;;7.75;;
42244;SDS011;27912;51.828;5.688;2023-04-01T04:21:16;12.80;;;8.07;;
42244;SDS011;27912;51.828;5.688;2023-04-01T04:23:41;13.05;;;8.82;;
42244;SDS011;27912;51.828;5.688;2023-04-01T04:26:08;13.88;;;9.77;;
42244;SDS011;27912;51.828;5.688;2023-04-01T04:28:36;18.90;;;10.80;;
42244;SDS011;27912;51.828;5.688;2023-04-01T04:31:02;17.10;;;10.10;;
42244;SDS011;27912;51.828;5.688;2023-04-01T04:33:29;18.63;;;10.98;;
42244;SDS011;27912;51.828;5.688;2023-04-01T04:35:56;16.38;;;10.63;;
42244;SDS011;27912;51.828;5.688;2023-04-01T04:38:23;17.85;;;10.68;;
42244;SDS011;27912;51.828;5.688;2023-04-01T04:40:49;20.20;;;11.93;;
42244;SDS011;27912;51.828;5.688;2023-04-01T04:43:15;18.08;;;10.50;;
42244;SDS011;27912;51.828;5.688;2023-04-01T04:45:41;18.70;;;10.85;;
42244;SDS011;27912;51.828;5.688;2023-04-01T04:48:07;16.75;;;10.85;;
42244;SDS011;27912;51.828;5.688;2023-04-01T04:50:41;18.05;;;11.02;;
42244;SDS011;27912;51.828;5.688;2023-04-01T04:53:09;19.10;;;11.30;;
42244;SDS011;27912;51.828;5.688;2023-04-01T04:55:35;16.65;;;10.20;;
42244;SDS011;27912;51.828;5.688;2023-04-01T04:58:00;15.15;;;9.82;;
42244;SDS011;27912;51.828;5.688;2023-04-01T05:00:26;15.35;;;10.38;;
42244;SDS011;27912;51.828;5.688;2023-04-01T05:02:51;15.85;;;10.38;;
42244;SDS011;27912;51.828;5.688;2023-04-01T05:05:17;16.42;;;9.73;;
42244;SDS011;27912;51.828;5.688;2023-04-01T05:07:43;15.60;;;10.00;;
42244;SDS011;27912;51.828;5.688;2023-04-01T05:10:09;20.60;;;10.70;;
42244;SDS011;27912;51.828;5.688;2023-04-01T05:12:34;16.50;;;10.18;;
42244;SDS011;27912;51.828;5.688;2023-04-01T05:15:07;18.33;;;10.88;;
42244;SDS011;27912;51.828;5.688;2023-04-01T05:17:33;19.20;;;11.55;;
42244;SDS011;27912;51.828;5.688;2023-04-01T05:19:59;17.38;;;10.82;;
42244;SDS011;27912;51.828;5.688;2023-04-01T05:22:25;15.75;;;10.18;;
42244;SDS011;27912;51.828;5.688;2023-04-01T05:24:51;19.27;;;11.93;;
42244;SDS011;27912;51.828;5.688;2023-04-01T05:27:16;20.42;;;11.57;;
42244;SDS011;27912;51.828;5.688;2023-04-01T05:29:42;24.67;;;12.73;;
42244;SDS011;27912;51.828;5.688;2023-04-01T05:32:07;22.40;;;13.13;;
42244;SDS011;27912;51.828;5.688;2023-04-01T05:34:33;22.85;;;13.52;;
42244;SDS011;27912;51.828;5.688;2023-04-01T05:36:58;22.85;;;14.95;;
42244;SDS011;27912;51.828;5.688;2023-04-01T05:39:24;26.30;;;14.95;;
42244;SDS011;27912;51.828;5.688;2023-04-01T05:41:50;33.72;;;16.85;;
42244;SDS011;27912;51.828;5.688;2023-04-01T05:44:15;32.72;;;16.13;;
42244;SDS011;27912;51.828;5.688;2023-04-01T05:46:41;33.30;;;17.13;;
42244;SDS011;27912;51.828;5.688;2023-04-01T05:49:06;26.25;;;14.63;;
42244;SDS011;27912;51.828;5.688;2023-04-01T05:51:32;34.63;;;17.02;;
42244;SDS011;27912;51.828;5.688;2023-04-01T05:53:58;34.50;;;17.40;;
42244;SDS011;27912;51.828;5.688;2023-04-01T05:56:23;26.40;;;14.45;;
42244;SDS011;27912;51.828;5.688;2023-04-01T05:58:50;33.97;;;16.23;;
42244;SDS011;27912;51.828;5.688;2023-04-01T06:01:18;30.60;;;15.18;;
42244;SDS011;27912;51.828;5.688;2023-04-01T06:03:45;25.70;;;13.95;;
42244;SDS011;27912;51.828;5.688;2023-04-01T06:06:13;32.85;;;15.15;;
42244;SDS011;27912;51.828;5.688;2023-04-01T06:08:40;30.92;;;15.25;;
42244;SDS011;27912;51.828;5.688;2023-04-01T06:11:16;26.75;;;14.15;;
42244;SDS011;27912;51.828;5.688;2023-04-01T06:14:03;28.48;;;13.48;;
42244;SDS011;27912;51.828;5.688;2023-04-01T06:17:01;31.13;;;14.80;;
42244;SDS011;27912;51.828;5.688;2023-04-01T06:22:09;31.85;;;15.05;;
42244;SDS011;27912;51.828;5.688;2023-04-01T06:25:00;27.90;;;13.60;;
42244;SDS011;27912;51.828;5.688;2023-04-01T06:39:02;32.58;;;16.88;;
42244;SDS011;27912;51.828;5.688;2023-04-01T06:42:08;39.50;;;19.65;;
42244;SDS011;27912;51.828;5.688;2023-04-01T06:50:15;44.83;;;21.92;;
42244;SDS011;27912;51.828;5.688;2023-04-01T06:56:03;38.13;;;20.48;;
42244;SDS011;27912;51.828;5.688;2023-04-01T06:58:49;38.13;;;18.50;;
42244;SDS011;27912;51.828;5.688;2023-04-01T07:01:44;36.40;;;19.23;;
42244;SDS011;27912;51.828;5.688;2023-04-01T07:04:28;36.28;;;18.67;;
42244;SDS011;27912;51.828;5.688;2023-04-01T07:07:00;30.30;;;17.02;;
42244;SDS011;27912;51.828;5.688;2023-04-01T07:09:37;34.70;;;16.48;;
42244;SDS011;27912;51.828;5.688;2023-04-01T07:13:06;31.42;;;16.83;;
42244;SDS011;27912;51.828;5.688;2023-04-01T07:15:13;36.70;;;19.10;;
42244;SDS011;27912;51.828;5.688;2023-04-01T07:17:47;30.05;;;16.60;;
42244;SDS011;27912;51.828;5.688;2023-04-01T07:20:27;35.38;;;17.80;;
42244;SDS011;27912;51.828;5.688;2023-04-01T07:22:57;36.28;;;19.10;;
42244;SDS011;27912;51.828;5.688;2023-04-01T07:25:35;38.80;;;18.02;;
42244;SDS011;27912;51.828;5.688;2023-04-01T07:28:05;33.50;;;17.75;;
42244;SDS011;27912;51.828;5.688;2023-04-01T07:30:52;30.70;;;16.85;;
42244;SDS011;27912;51.828;5.688;2023-04-01T07:50:21;29.00;;;15.25;;
42244;SDS011;27912;51.828;5.688;2023-04-01T07:53:16;33.65;;;16.48;;
42244;SDS011;27912;51.828;5.688;2023-04-01T07:58:45;33.08;;;14.88;;
42244;SDS011;27912;51.828;5.688;2023-04-01T08:01:16;28.92;;;14.80;;
42244;SDS011;27912;51.828;5.688;2023-04-01T08:04:09;27.83;;;14.80;;
42244;SDS011;27912;51.828;5.688;2023-04-01T08:09:23;30.15;;;15.98;;
42244;SDS011;27912;51.828;5.688;2023-04-01T08:17:51;26.42;;;14.20;;
42244;SDS011;27912;51.828;5.688;2023-04-01T08:20:46;20.60;;;11.80;;
42244;SDS011;27912;51.828;5.688;2023-04-01T08:26:04;30.33;;;13.10;;
42244;SDS011;27912;51.828;5.688;2023-04-01T08:29:00;24.35;;;12.80;;
42244;SDS011;27912;51.828;5.688;2023-04-01T08:34:28;25.55;;;12.45;;
42244;SDS011;27912;51.828;5.688;2023-04-01T08:37:04;27.90;;;13.98;;
42244;SDS011;27912;51.828;5.688;2023-04-01T08:39:46;28.48;;;14.32;;
42244;SDS011;27912;51.828;5.688;2023-04-01T08:42:37;24.55;;;13.77;;
42244;SDS011;27912;51.828;5.688;2023-04-01T08:45:30;26.77;;;13.77;;
42244;SDS011;27912;51.828;5.688;2023-04-01T08:48:23;33.13;;;15.57;;
42244;SDS011;27912;51.828;5.688;2023-04-01T08:51:20;24.50;;;13.85;;
42244;SDS011;27912;51.828;5.688;2023-04-01T09:02:43;24.67;;;14.05;;
42244;SDS011;27912;51.828;5.688;2023-04-01T09:05:37;28.75;;;13.52;;
42244;SDS011;27912;51.828;5.688;2023-04-01T09:08:26;27.83;;;15.25;;
42244;SDS011;27912;51.828;5.688;2023-04-01T09:11:04;31.73;;;15.07;;
42244;SDS011;27912;51.828;5.688;2023-04-01T09:16:27;31.00;;;15.00;;
42244;SDS011;27912;51.828;5.688;2023-04-01T09:19:15;28.73;;;15.40;;
42244;SDS011;27912;51.828;5.688;2023-04-01T09:40:14;47.92;;;19.77;;
42244;SDS011;27912;51.828;5.688;2023-04-01T09:54:32;42.65;;;19.38;;
42244;SDS011;27912;51.828;5.688;2023-04-01T09:57:09;40.92;;;18.67;;
42244;SDS011;27912;51.828;5.688;2023-04-01T10:08:46;43.65;;;21.05;;
42244;SDS011;27912;51.828;5.688;2023-04-01T10:17:26;50.33;;;21.30;;
42244;SDS011;27912;51.828;5.688;2023-04-01T10:23:07;44.55;;;21.42;;
42244;SDS011;27912;51.828;5.688;2023-04-01T10:48:43;49.55;;;22.80;;
42244;SDS011;27912;51.828;5.688;2023-04-01T10:57:33;37.63;;;19.15;;
42244;SDS011;27912;51.828;5.688;2023-04-01T11:00:48;42.85;;;19.10;;
42244;SDS011;27912;51.828;5.688;2023-04-01T11:03:36;38.20;;;18.67;;
42244;SDS011;27912;51.828;5.688;2023-04-01T11:15:37;26.95;;;13.45;;
42244;SDS011;27912;51.828;5.688;2023-04-01T11:23:53;24.38;;;12.50;;
42244;SDS011;27912;51.828;5.688;2023-04-01T11:29:36;39.30;;;17.77;;
42244;SDS011;27912;51.828;5.688;2023-04-01T11:32:19;37.85;;;17.30;;
42244;SDS011;27912;51.828;5.688;2023-04-01T11:40:46;40.58;;;19.15;;
42244;SDS011;27912;51.828;5.688;2023-04-01T11:46:10;39.60;;;19.40;;
42244;SDS011;27912;51.828;5.688;2023-04-01T11:51:44;33.30;;;17.20;;
42244;SDS011;27912;51.828;5.688;2023-04-01T12:00:01;32.65;;;16.42;;
42244;SDS011;27912;51.828;5.688;2023-04-01T12:18:57;25.42;;;13.15;;
42244;SDS011;27912;51.828;5.688;2023-04-01T12:21:38;28.67;;;14.40;;
42244;SDS011;27912;51.828;5.688;2023-04-01T12:32:40;26.05;;;15.38;;
42244;SDS011;27912;51.828;5.688;2023-04-01T12:37:56;26.98;;;16.05;;
42244;SDS011;27912;51.828;5.688;2023-04-01T12:46:22;22.15;;;14.00;;
42244;SDS011;27912;51.828;5.688;2023-04-01T12:54:28;23.87;;;13.83;;
42244;SDS011;27912;51.828;5.688;2023-04-01T13:16:24;16.48;;;10.40;;
42244;SDS011;27912;51.828;5.688;2023-04-01T13:19:04;19.90;;;11.65;;
42244;SDS011;27912;51.828;5.688;2023-04-01T13:27:21;13.48;;;8.48;;
42244;SDS011;27912;51.828;5.688;2023-04-01T13:41:43;17.80;;;10.88;;
42244;SDS011;27912;51.828;5.688;2023-04-01T13:44:31;13.38;;;8.85;;
42244;SDS011;27912;51.828;5.688;2023-04-01T13:47:32;7.63;;;4.88;;
42244;SDS011;27912;51.828;5.688;2023-04-01T14:04:47;2.83;;;0.80;;
42244;SDS011;27912;51.828;5.688;2023-04-01T14:07:38;4.40;;;1.58;;
42244;SDS011;27912;51.828;5.688;2023-04-01T14:21:53;8.07;;;4.22;;
42244;SDS011;27912;51.828;5.688;2023-04-01T14:27:21;8.60;;;5.07;;
42244;SDS011;27912;51.828;5.688;2023-04-01T14:33:05;14.60;;;7.55;;
42244;SDS011;27912;51.828;5.688;2023-04-01T14:50:23;16.15;;;7.80;;
42244;SDS011;27912;51.828;5.688;2023-04-01T14:55:50;12.80;;;6.90;;
42244;SDS011;27912;51.828;5.688;2023-04-01T14:58:18;13.38;;;6.60;;
42244;SDS011;27912;51.828;5.688;2023-04-01T15:14:55;10.73;;;5.10;;
42244;SDS011;27912;51.828;5.688;2023-04-01T15:17:45;10.50;;;5.47;;
42244;SDS011;27912;51.828;5.688;2023-04-01T15:26:42;12.10;;;5.97;;
42244;SDS011;27912;51.828;5.688;2023-04-01T15:29:23;11.07;;;5.63;;
42244;SDS011;27912;51.828;5.688;2023-04-01T15:32:25;11.98;;;6.32;;
42244;SDS011;27912;51.828;5.688;2023-04-01T15:37:56;11.23;;;5.63;;
42244;SDS011;27912;51.828;5.688;2023-04-01T15:45:50;8.90;;;4.72;;
42244;SDS011;27912;51.828;5.688;2023-04-01T15:48:40;9.40;;;4.75;;
42244;SDS011;27912;51.828;5.688;2023-04-01T15:51:37;9.68;;;4.63;;
42244;SDS011;27912;51.828;5.688;2023-04-01T15:54:27;10.93;;;4.38;;
42244;SDS011;27912;51.828;5.688;2023-04-01T16:05:42;8.75;;;4.10;;
42244;SDS011;27912;51.828;5.688;2023-04-01T16:11:30;9.68;;;4.72;;
42244;SDS011;27912;51.828;5.688;2023-04-01T16:19:56;9.18;;;4.65;;
42244;SDS011;27912;51.828;5.688;2023-04-01T16:28:03;9.45;;;5.10;;
42244;SDS011;27912;51.828;5.688;2023-04-01T16:33:49;8.30;;;5.20;;
42244;SDS011;27912;51.828;5.688;2023-04-01T16:36:24;6.95;;;4.60;;
42244;SDS011;27912;51.828;5.688;2023-04-01T16:42:07;7.45;;;5.22;;
42244;SDS011;27912;51.828;5.688;2023-04-01T16:44:50;6.68;;;4.65;;
42244;SDS011;27912;51.828;5.688;2023-04-01T16:47:32;7.07;;;5.03;;
42244;SDS011;27912;51.828;5.688;2023-04-01T16:50:13;8.15;;;5.30;;
42244;SDS011;27912;51.828;5.688;2023-04-01T16:52:59;7.07;;;4.75;;
42244;SDS011;27912;51.828;5.688;2023-04-01T17:01:27;7.85;;;4.97;;
42244;SDS011;27912;51.828;5.688;2023-04-01T17:04:04;9.50;;;6.38;;
42244;SDS011;27912;51.828;5.688;2023-04-01T17:06:47;8.23;;;5.45;;
42244;SDS011;27912;51.828;5.688;2023-04-01T17:15:02;7.75;;;5.80;;
42244;SDS011;27912;51.828;5.688;2023-04-01T17:17:34;8.13;;;5.65;;
42244;SDS011;27912;51.828;5.688;2023-04-01T17:20:12;7.07;;;5.35;;
42244;SDS011;27912;51.828;5.688;2023-04-01T17:22:53;7.68;;;5.47;;
42244;SDS011;27912;51.828;5.688;2023-04-01T17:25:34;7.57;;;5.63;;
42244;SDS011;27912;51.828;5.688;2023-04-01T17:30:51;6.07;;;4.70;;
42244;SDS011;27912;51.828;5.688;2023-04-01T17:33:43;7.35;;;5.50;;
42244;SDS011;27912;51.828;5.688;2023-04-01T17:41:53;5.65;;;4.40;;
42244;SDS011;27912;51.828;5.688;2023-04-01T17:44:38;6.22;;;4.13;;
42244;SDS011;27912;51.828;5.688;2023-04-01T17:50:21;5.97;;;4.10;;
42244;SDS011;27912;51.828;5.688;2023-04-01T17:52:58;4.40;;;3.20;;
42244;SDS011;27912;51.828;5.688;2023-04-01T17:55:40;5.80;;;4.28;;
42244;SDS011;27912;51.828;5.688;2023-04-01T17:58:21;5.75;;;4.07;;
42244;SDS011;27912;51.828;5.688;2023-04-01T18:01:09;5.07;;;4.00;;
42244;SDS011;27912;51.828;5.688;2023-04-01T18:09:05;7.95;;;5.80;;
42244;SDS011;27912;51.828;5.688;2023-04-01T18:14:37;7.20;;;5.50;;
42244;SDS011;27912;51.828;5.688;2023-04-01T18:17:15;7.68;;;5.68;;
42244;SDS011;27912;51.828;5.688;2023-04-01T18:19:48;7.95;;;5.82;;
42244;SDS011;27912;51.828;5.688;2023-04-01T18:22:44;10.13;;;6.53;;
42244;SDS011;27912;51.828;5.688;2023-04-01T18:25:34;9.73;;;7.38;;
42244;SDS011;27912;51.828;5.688;2023-04-01T18:30:42;9.07;;;7.55;;
42244;SDS011;27912;51.828;5.688;2023-04-01T18:33:19;9.52;;;7.10;;
42244;SDS011;27912;51.828;5.688;2023-04-01T18:38:54;10.38;;;7.00;;
42244;SDS011;27912;51.828;5.688;2023-04-01T18:41:39;8.35;;;6.72;;
42244;SDS011;27912;51.828;5.688;2023-04-01T18:44:31;9.82;;;7.68;;
42244;SDS011;27912;51.828;5.688;2023-04-01T18:47:23;9.07;;;7.18;;
42244;SDS011;27912;51.828;5.688;2023-04-01T18:52:48;9.52;;;7.38;;
42244;SDS011;27912;51.828;5.688;2023-04-01T18:55:59;10.13;;;7.65;;
42244;SDS011;27912;51.828;5.688;2023-04-01T18:58:48;9.07;;;6.95;;
42244;SDS011;27912;51.828;5.688;2023-04-01T19:01:43;7.93;;;6.28;;
42244;SDS011;27912;51.828;5.688;2023-04-01T19:04:21;9.43;;;5.88;;
42244;SDS011;27912;51.828;5.688;2023-04-01T19:06:59;8.40;;;5.97;;
42244;SDS011;27912;51.828;5.688;2023-04-01T19:09:31;8.27;;;6.22;;
42244;SDS011;27912;51.828;5.688;2023-04-01T19:12:24;9.68;;;7.35;;
42244;SDS011;27912;51.828;5.688;2023-04-01T19:23:36;13.38;;;10.07;;
42244;SDS011;27912;51.828;5.688;2023-04-01T19:40:30;15.05;;;11.90;;
42244;SDS011;27912;51.828;5.688;2023-04-01T19:49:02;15.35;;;10.32;;
42244;SDS011;27912;51.828;5.688;2023-04-01T19:54:24;12.40;;;10.13;;
42244;SDS011;27912;51.828;5.688;2023-04-01T19:57:25;12.73;;;9.70;;
42244;SDS011;27912;51.828;5.688;2023-04-01T20:02:39;15.70;;;11.43;;
42244;SDS011;27912;51.828;5.688;2023-04-01T20:08:12;14.07;;;10.52;;
42244;SDS011;27912;51.828;5.688;2023-04-01T20:13:58;12.80;;;9.25;;
42244;SDS011;27912;51.828;5.688;2023-04-01T20:16:49;11.48;;;9.43;;
42244;SDS011;27912;51.828;5.688;2023-04-01T20:22:00;11.32;;;8.63;;
42244;SDS011;27912;51.828;5.688;2023-04-01T20:24:37;11.13;;;8.88;;
42244;SDS011;27912;51.828;5.688;2023-04-01T20:27:09;11.85;;;9.45;;
42244;SDS011;27912;51.828;5.688;2023-04-01T20:29:55;12.95;;;9.25;;
42244;SDS011;27912;51.828;5.688;2023-04-01T20:38:19;14.20;;;10.63;;
42244;SDS011;27912;51.828;5.688;2023-04-01T20:41:06;15.50;;;10.23;;
42244;SDS011;27912;51.828;5.688;2023-04-01T20:43:46;15.48;;;11.52;;
42244;SDS011;27912;51.828;5.688;2023-04-01T20:51:53;13.18;;;10.55;;
42244;SDS011;27912;51.828;5.688;2023-04-01T20:54:37;15.30;;;11.35;;
42244;SDS011;27912;51.828;5.688;2023-04-01T20:57:16;14.95;;;11.45;;
42244;SDS011;27912;51.828;5.688;2023-04-01T21:03:14;17.10;;;11.68;;
42244;SDS011;27912;51.828;5.688;2023-04-01T21:06:10;17.70;;;12.25;;
42244;SDS011;27912;51.828;5.688;2023-04-01T21:17:11;17.23;;;12.52;;
42244;SDS011;27912;51.828;5.688;2023-04-01T21:19:45;17.00;;;12.43;;
42244;SDS011;27912;51.828;5.688;2023-04-01T21:25:16;22.00;;;15.82;;
42244;SDS011;27912;51.828;5.688;2023-04-01T21:28:02;22.15;;;16.33;;
42244;SDS011;27912;51.828;5.688;2023-04-01T21:42:00;20.05;;;14.50;;
42244;SDS011;27912;51.828;5.688;2023-04-01T21:44:41;21.15;;;14.90;;
42244;SDS011;27912;51.828;5.688;2023-04-01T21:47:19;19.98;;;15.52;;
42244;SDS011;27912;51.828;5.688;2023-04-01T21:55:32;20.58;;;16.52;;
42244;SDS011;27912;51.828;5.688;2023-04-01T21:58:30;19.60;;;14.32;;
42244;SDS011;27912;51.828;5.688;2023-04-01T22:09:25;16.60;;;13.00;;
42244;SDS011;27912;51.828;5.688;2023-04-01T22:12:15;15.55;;;12.57;;
42244;SDS011;27912;51.828;5.688;2023-04-01T22:17:28;13.38;;;11.27;;
42244;SDS011;27912;51.828;5.688;2023-04-01T22:28:44;13.70;;;10.75;;
42244;SDS011;27912;51.828;5.688;2023-04-01T22:31:17;13.95;;;11.30;;
42244;SDS011;27912;51.828;5.688;2023-04-01T22:34:00;14.77;;;11.32;;
42244;SDS011;27912;51.828;5.688;2023-04-01T22:36:53;13.63;;;10.88;;
42244;SDS011;27912;51.828;5.688;2023-04-01T22:39:43;12.73;;;10.30;;
42244;SDS011;27912;51.828;5.688;2023-04-01T22:42:31;12.35;;;10.00;;
42244;SDS011;27912;51.828;5.688;2023-04-01T22:50:52;10.32;;;8.05;;
42244;SDS011;27912;51.828;5.688;2023-04-01T22:53:36;13.70;;;9.40;;
42244;SDS011;27912;51.828;5.688;2023-04-01T22:56:12;13.20;;;10.27;;
42244;SDS011;27912;51.828;5.688;2023-04-01T22:58:46;14.43;;;10.95;;
42244;SDS011;27912;51.828;5.688;2023-04-01T23:01:23;13.10;;;10.20;;
42244;SDS011;27912;51.828;5.688;2023-04-01T23:03:54;13.60;;;10.52;;
42244;SDS011;27912;51.828;5.688;2023-04-01T23:06:32;14.77;;;10.48;;
42244;SDS011;27912;51.828;5.688;2023-04-01T23:09:08;14.05;;;11.18;;
42244;SDS011;27912;51.828;5.688;2023-04-01T23:25:43;13.93;;;10.25;;
42244;SDS011;27912;51.828;5.688;2023-04-01T23:34:02;13.02;;;8.82;;
42244;SDS011;27912;51.828;5.688;2023-04-01T23:36:37;11.02;;;9.32;;
42244;SDS011;27912;51.828;5.688;2023-04-01T23:39:11;10.68;;;7.95;;
42244;SDS011;27912;51.828;5.688;2023-04-01T23:41:51;9.85;;;8.15;;
42244;SDS011;27912;51.828;5.688;2023-04-01T23:44:19;9.38;;;7.93;;
42244;SDS011;27912;51.828;5.688;2023-04-01T23:46:46;12.30;;;8.55;;
42244;SDS011;27912;51.828;5.688;2023-04-01T23:49:14;10.65;;;8.77;;
42244;SDS011;27912;51.828;5.688;2023-04-01T23:51:52;11.15;;;9.55;;
42244;SDS011;27912;51.828;5.688;2023-04-01T23:57:04;16.50;;;11.35;;
42244;SDS011;27912;51.828;5.688;2023-04-01T23:59:37;14.38;;;11.45;;
